Time;durP1;ratioP1;P1;durP2;ratioP2;P2;SDS_P1;SDS_P2;PMS_P1;PMS_P2;Temp;Humidity;BMP_temperature;BMP_pressure;BME280_temperature;BME280_humidity;BME280_pressure;Samples;Min_cycle;Max_cycle;Signal;HPM_P1;HPM_P2
2023/12/28 00:00:58;;;;;;;12.40;8.50;;;;;;;;;;81819;284;3028100;-37
2023/12/28 00:03:51;;;;;;;12.80;9.20;;;;;;;;;;81015;284;3036599;-37
2023/12/28 00:06:35;;;;;;;11.40;8.70;;;;;;;;;;80979;284;3031564;-37
2023/12/28 00:09:20;;;;;;;13.30;8.60;;;;;;;;;;81876;284;3028262;-37
2023/12/28 00:12:05;;;;;;;11.30;8.20;;;;;;;;;;80957;284;3027942;-37
2023/12/28 00:15:01;;;;;;;11.40;8.50;;;;;;;;;;82356;284;3031047;-37
2023/12/28 00:17:42;;;;;;;11.10;8.30;;;;;;;;;;80965;284;3031488;-37
2023/12/28 00:20:30;;;;;;;11.40;8.10;;;;;;;;;;80991;272;3028528;-37
2023/12/28 00:23:19;;;;;;;10.80;7.90;;;;;;;;;;82282;284;3027587;-38
2023/12/28 00:25:57;;;;;;;11.80;8.40;;;;;;;;;;80917;284;3038462;-37
2023/12/28 00:28:40;;;;;;;11.40;8.40;;;;;;;;;;81702;284;3031155;-38
2023/12/28 00:31:25;;;;;;;11.40;8.10;;;;;;;;;;80956;280;3028117;-37
2023/12/28 00:34:18;;;;;;;10.90;8.40;;;;;;;;;;80967;281;3027692;-37
2023/12/28 00:37:07;;;;;;;10.30;7.90;;;;;;;;;;81002;276;3036935;-37
2023/12/28 00:39:50;;;;;;;10.60;8.30;;;;;;;;;;81798;280;3032477;-37
2023/12/28 00:42:31;;;;;;;10.70;8.20;;;;;;;;;;81026;272;3028159;-37
2023/12/28 00:45:16;;;;;;;11.20;8.30;;;;;;;;;;81005;276;3027366;-37
2023/12/28 00:47:58;;;;;;;10.70;8.00;;;;;;;;;;82150;284;3031047;-37
2023/12/28 00:50:36;;;;;;;10.90;8.30;;;;;;;;;;80994;276;3031910;-37
2023/12/28 00:53:16;;;;;;;10.10;7.60;;;;;;;;;;82353;276;3028234;-37
2023/12/28 00:55:59;;;;;;;10.60;7.80;;;;;;;;;;82365;280;3028609;-37
2023/12/28 01:00:26;;;;;;;11.00;7.70;;;;;;;;;;81669;305;3011076;-35
2023/12/28 01:03:17;;;;;;;11.50;7.80;;;;;;;;;;80793;278;3028094;-35
2023/12/28 01:06:02;;;;;;;10.90;8.10;;;;;;;;;;82203;282;3027507;-36
2023/12/28 01:08:44;;;;;;;11.10;7.50;;;;;;;;;;82070;286;3031027;-35
2023/12/28 01:11:21;;;;;;;11.40;8.10;;;;;;;;;;82296;275;3038203;-35
2023/12/28 01:14:07;;;;;;;11.40;7.90;;;;;;;;;;81507;273;4043916;-36
2023/12/28 01:17:02;;;;;;;9.50;7.20;;;;;;;;;;82372;284;3028328;-35
2023/12/28 01:19:49;;;;;;;10.20;7.50;;;;;;;;;;82334;273;3031267;-35
2023/12/28 01:22:35;;;;;;;10.30;7.50;;;;;;;;;;81877;284;3032298;-35
2023/12/28 01:25:24;;;;;;;9.70;7.30;;;;;;;;;;80991;277;3028632;-35
2023/12/28 01:28:18;;;;;;;10.90;8.00;;;;;;;;;;82347;273;3027775;-36
2023/12/28 01:31:04;;;;;;;9.90;7.80;;;;;;;;;;82317;280;3030646;-36
2023/12/28 01:33:50;;;;;;;10.70;7.60;;;;;;;;;;81583;281;3032534;-35
2023/12/28 01:36:30;;;;;;;10.70;7.90;;;;;;;;;;81336;273;3027974;-35
2023/12/28 01:39:15;;;;;;;10.10;7.60;;;;;;;;;;81297;273;3027534;-35
2023/12/28 01:42:05;;;;;;;9.40;7.00;;;;;;;;;;81334;269;3031332;-37
2023/12/28 01:44:52;;;;;;;10.30;7.50;;;;;;;;;;82620;273;3032243;-38
2023/12/28 01:47:36;;;;;;;10.20;7.60;;;;;;;;;;82631;276;3027805;-38
2023/12/28 01:50:39;;;;;;;9.80;6.90;;;;;;;;;;82702;276;3027849;-38
2023/12/28 01:53:26;;;;;;;10.20;7.10;;;;;;;;;;82588;280;3031137;-38
2023/12/28 01:56:15;;;;;;;10.10;7.30;;;;;;;;;;82601;280;3031320;-38
2023/12/28 01:58:58;;;;;;;10.70;7.60;;;;;;;;;;82322;280;3028248;-38
2023/12/28 02:01:40;;;;;;;9.70;7.30;;;;;;;;;;82589;277;3027853;-38
2023/12/28 02:04:35;;;;;;;10.00;7.30;;;;;;;;;;82600;280;3031725;-38
2023/12/28 02:07:31;;;;;;;10.20;7.20;;;;;;;;;;82611;269;3031772;-38
2023/12/28 02:10:27;;;;;;;10.20;6.90;;;;;;;;;;82623;280;3028193;-38
2023/12/28 02:13:13;;;;;;;9.50;7.30;;;;;;;;;;82618;277;3027733;-38
2023/12/28 02:15:54;;;;;;;10.00;7.20;;;;;;;;;;82563;277;3030899;-38
2023/12/28 02:18:39;;;;;;;10.10;6.90;;;;;;;;;;82545;280;3031666;-38
2023/12/28 02:21:20;;;;;;;9.30;7.10;;;;;;;;;;82546;281;3028494;-38
2023/12/28 02:24:04;;;;;;;9.50;7.10;;;;;;;;;;82562;269;3028354;-38
2023/12/28 02:28:11;;;;;;;10.20;7.10;;;;;;;;;;81753;306;3011450;-34
2023/12/28 02:31:22;;;;;;;9.20;7.30;;;;;;;;;;81920;284;3027910;-35
2023/12/28 02:34:22;;;;;;;9.70;7.10;;;;;;;;;;82327;281;3027366;-35
2023/12/28 02:37:11;;;;;;;9.90;6.80;;;;;;;;;;82349;294;3031315;-35
2023/12/28 02:42:18;;;;;;;9.40;6.80;;;;;;;;;;81643;308;3011290;-35
2023/12/28 02:45:00;;;;;;;9.70;6.60;;;;;;;;;;81880;286;3028718;-36
2023/12/28 02:47:49;;;;;;;10.20;6.90;;;;;;;;;;80631;286;3027831;-36
2023/12/28 02:50:36;;;;;;;9.90;6.90;;;;;;;;;;81962;288;3030848;-36
2023/12/28 02:53:25;;;;;;;8.70;6.60;;;;;;;;;;81984;284;3037614;-36
2023/12/28 02:56:15;;;;;;;9.30;6.30;;;;;;;;;;81728;303;3011837;-34
2023/12/28 02:59:12;;;;;;;9.30;6.50;;;;;;;;;;80509;289;3028495;-34
2023/12/28 03:02:00;;;;;;;9.20;6.50;;;;;;;;;;81815;289;3027410;-34
2023/12/28 03:04:41;;;;;;;9.20;6.50;;;;;;;;;;82174;284;3031011;-34
2023/12/28 03:07:39;;;;;;;9.30;6.60;;;;;;;;;;82076;283;3037238;-35
2023/12/28 03:10:31;;;;;;;8.40;6.00;;;;;;;;;;81636;306;3011514;-35
2023/12/28 03:13:15;;;;;;;10.50;6.80;;;;;;;;;;80406;288;3028007;-35
2023/12/28 03:15:57;;;;;;;9.00;6.10;;;;;;;;;;80543;289;3027349;-35
2023/12/28 03:18:42;;;;;;;7.80;6.10;;;;;;;;;;80568;290;3031217;-35
2023/12/28 03:21:22;;;;;;;10.10;6.00;;;;;;;;;;80532;289;3031042;-35
2023/12/28 03:24:02;;;;;;;8.70;5.90;;;;;;;;;;80486;288;3028006;-36
2023/12/28 03:26:43;;;;;;;8.20;5.80;;;;;;;;;;80715;288;3027174;-36
2023/12/28 03:29:29;;;;;;;9.50;6.10;;;;;;;;;;80690;284;3030708;-36
2023/12/28 03:32:17;;;;;;;8.50;5.70;;;;;;;;;;80746;287;3037771;-36
2023/12/28 03:35:09;;;;;;;8.40;5.80;;;;;;;;;;82045;287;3028784;-38
2023/12/28 03:37:58;;;;;;;8.50;5.70;;;;;;;;;;81958;279;3027661;-37
2023/12/28 03:40:47;;;;;;;8.50;5.90;;;;;;;;;;82062;284;3030566;-37
2023/12/28 03:45:05;;;;;;;8.00;5.30;;;;;;;;;;81734;303;3011574;-34
2023/12/28 03:47:48;;;;;;;7.80;5.70;;;;;;;;;;81966;284;3027848;-35
2023/12/28 03:50:40;;;;;;;8.20;5.60;;;;;;;;;;82087;277;3027263;-35
2023/12/28 03:53:26;;;;;;;9.00;5.70;;;;;;;;;;82018;289;3031348;-35
2023/12/28 03:56:04;;;;;;;8.40;5.70;;;;;;;;;;81482;288;3031871;-35
2023/12/28 03:58:58;;;;;;;8.30;5.40;;;;;;;;;;82012;283;3157625;-35
2023/12/28 04:02:00;;;;;;;7.90;5.30;;;;;;;;;;82160;283;3027968;-35
2023/12/28 04:04:49;;;;;;;8.40;5.70;;;;;;;;;;82134;269;3031462;-35
2023/12/28 04:07:42;;;;;;;7.50;5.20;;;;;;;;;;82675;269;3031676;-35
2023/12/28 04:11:49;;;;;;;7.70;5.40;;;;;;;;;;81703;306;3011953;-37
2023/12/28 04:14:33;;;;;;;7.60;5.10;;;;;;;;;;81614;284;3028575;-38
2023/12/28 04:17:26;;;;;;;7.10;4.90;;;;;;;;;;82184;283;3027796;-38
2023/12/28 04:20:20;;;;;;;7.70;5.40;;;;;;;;;;81746;282;3030701;-38
2023/12/28 04:23:02;;;;;;;8.10;5.20;;;;;;;;;;81606;283;3038122;-37
2023/12/28 04:25:46;;;;;;;7.80;5.10;;;;;;;;;;81055;273;3168412;-38
2023/12/28 04:28:28;;;;;;;8.00;5.10;;;;;;;;;;81295;273;3027436;-38
2023/12/28 04:31:15;;;;;;;8.40;5.60;;;;;;;;;;81307;280;3031004;-37
2023/12/28 04:33:55;;;;;;;7.70;4.90;;;;;;;;;;82556;280;3031463;-39
2023/12/28 04:36:48;;;;;;;7.20;4.70;;;;;;;;;;81366;273;3028584;-37
2023/12/28 04:39:38;;;;;;;7.60;4.80;;;;;;;;;;82589;277;3028169;-38
2023/12/28 04:42:24;;;;;;;7.80;5.00;;;;;;;;;;81972;273;3031139;-37
2023/12/28 04:45:13;;;;;;;8.10;4.90;;;;;;;;;;81298;269;3031338;-37
2023/12/28 04:47:55;;;;;;;7.30;4.90;;;;;;;;;;81350;280;3027745;-38
2023/12/28 04:50:46;;;;;;;7.60;4.70;;;;;;;;;;82722;276;3027214;-38
2023/12/28 04:53:38;;;;;;;7.90;4.80;;;;;;;;;;82540;272;3031029;-38
2023/12/28 04:56:24;;;;;;;7.10;4.50;;;;;;;;;;82586;268;3031267;-38
2023/12/28 04:59:13;;;;;;;7.70;4.70;;;;;;;;;;82689;268;3034671;-38
2023/12/28 05:01:56;;;;;;;7.70;4.70;;;;;;;;;;82259;268;3027163;-38
2023/12/28 05:04:37;;;;;;;7.70;4.70;;;;;;;;;;81299;272;3031244;-37
2023/12/28 05:07:29;;;;;;;7.00;4.80;;;;;;;;;;82699;272;3031019;-38
2023/12/28 05:11:53;;;;;;;6.80;4.60;;;;;;;;;;81664;309;3011969;-35
2023/12/28 05:14:33;;;;;;;7.10;4.80;;;;;;;;;;80424;291;3028874;-35
2023/12/28 05:17:13;;;;;;;6.90;4.80;;;;;;;;;;80452;291;3029148;-35
2023/12/28 05:19:51;;;;;;;8.00;4.70;;;;;;;;;;80444;283;3031489;-35
2023/12/28 05:22:32;;;;;;;7.80;4.80;;;;;;;;;;80444;291;3031472;-35
2023/12/28 05:25:09;;;;;;;6.60;4.50;;;;;;;;;;80322;286;3028136;-36
2023/12/28 05:27:46;;;;;;;7.30;4.60;;;;;;;;;;81969;285;3027434;-38
2023/12/28 05:30:22;;;;;;;7.40;4.50;;;;;;;;;;82116;276;3030725;-38
2023/12/28 05:32:58;;;;;;;7.30;4.70;;;;;;;;;;82122;283;3031615;-38
2023/12/28 05:35:35;;;;;;;7.10;4.50;;;;;;;;;;82149;283;3028149;-38
2023/12/28 05:38:11;;;;;;;7.30;4.90;;;;;;;;;;82076;283;3027793;-38
2023/12/28 05:40:47;;;;;;;7.10;4.60;;;;;;;;;;82121;283;3029663;-38
2023/12/28 05:43:23;;;;;;;7.30;4.70;;;;;;;;;;82067;296;3038656;-38
2023/12/28 05:45:59;;;;;;;7.70;4.60;;;;;;;;;;82113;287;3028596;-38
2023/12/28 05:48:35;;;;;;;6.90;4.60;;;;;;;;;;82184;282;3027678;-38
2023/12/28 05:51:11;;;;;;;6.70;4.60;;;;;;;;;;82301;284;3030799;-38
2023/12/28 05:53:47;;;;;;;7.30;4.50;;;;;;;;;;82389;280;3031204;-38
2023/12/28 05:56:23;;;;;;;7.10;4.50;;;;;;;;;;82384;284;3028534;-38
2023/12/28 05:58:59;;;;;;;6.90;4.30;;;;;;;;;;82376;280;3027578;-35
2023/12/28 06:01:44;;;;;;;6.90;4.30;;;;;;;;;;82333;280;3031273;-35
2023/12/28 06:04:20;;;;;;;7.10;4.30;;;;;;;;;;82389;284;3037252;-35
2023/12/28 06:06:56;;;;;;;7.40;4.70;;;;;;;;;;82352;284;3028741;-35
2023/12/28 06:09:33;;;;;;;6.70;4.30;;;;;;;;;;82391;280;3027083;-36
2023/12/28 06:12:10;;;;;;;7.00;4.60;;;;;;;;;;82289;284;3030696;-35
2023/12/28 06:14:46;;;;;;;6.90;4.40;;;;;;;;;;82344;273;3031280;-36
2023/12/28 06:17:22;;;;;;;7.70;4.70;;;;;;;;;;81940;276;3028625;-35
2023/12/28 06:20:10;;;;;;;6.80;4.40;;;;;;;;;;80976;280;3027473;-35
2023/12/28 06:23:00;;;;;;;6.90;4.30;;;;;;;;;;81332;280;3031185;-35
2023/12/28 06:25:42;;;;;;;8.10;4.80;;;;;;;;;;80948;284;3031167;-35
2023/12/28 06:28:23;;;;;;;6.90;4.50;;;;;;;;;;82309;285;3028457;-35
2023/12/28 06:31:05;;;;;;;7.00;4.30;;;;;;;;;;82052;284;3027947;-36
2023/12/28 06:33:48;;;;;;;6.50;4.20;;;;;;;;;;82269;273;3030459;-35
2023/12/28 06:37:56;;;;;;;6.80;4.40;;;;;;;;;;81762;303;3011533;-36
2023/12/28 06:40:42;;;;;;;7.10;4.20;;;;;;;;;;82041;284;3027674;-38
2023/12/28 06:43:52;;;;;;;6.50;3.90;;;;;;;;;;82091;284;3027869;-37
2023/12/28 06:46:36;;;;;;;7.00;4.40;;;;;;;;;;82120;275;3031185;-38
2023/12/28 06:49:19;;;;;;;6.70;4.30;;;;;;;;;;81881;282;3037697;-37
2023/12/28 06:52:00;;;;;;;6.80;4.40;;;;;;;;;;80848;276;3028428;-36
2023/12/28 06:54:41;;;;;;;7.30;4.70;;;;;;;;;;81009;272;3027447;-36
2023/12/28 06:57:26;;;;;;;6.70;4.30;;;;;;;;;;80976;272;3030712;-36
2023/12/28 07:00:21;;;;;;;7.20;4.40;;;;;;;;;;82323;276;3031644;-37
2023/12/28 07:03:06;;;;;;;7.40;4.50;;;;;;;;;;81477;276;3028522;-40
2023/12/28 07:05:55;;;;;;;9.00;4.90;;;;;;;;;;81223;284;3027456;-39
2023/12/28 07:08:39;;;;;;;9.10;4.90;;;;;;;;;;81045;280;3031391;-37
2023/12/28 07:11:22;;;;;;;8.30;4.80;;;;;;;;;;81023;276;3031362;-37
2023/12/28 07:14:02;;;;;;;7.50;4.70;;;;;;;;;;80987;276;3028293;-37
2023/12/28 07:16:44;;;;;;;7.50;4.40;;;;;;;;;;80997;276;3027332;-37
2023/12/28 07:19:28;;;;;;;7.40;4.50;;;;;;;;;;80979;271;3030562;-38
2023/12/28 07:22:10;;;;;;;8.00;4.60;;;;;;;;;;81027;279;3032015;-37
2023/12/28 07:24:49;;;;;;;7.70;4.60;;;;;;;;;;81159;275;3028536;-37
2023/12/28 07:27:41;;;;;;;8.40;4.70;;;;;;;;;;81327;268;3027102;-37
2023/12/28 07:30:21;;;;;;;7.70;4.50;;;;;;;;;;82111;280;3037769;-36
2023/12/28 07:33:13;;;;;;;8.10;5.00;;;;;;;;;;81315;280;3031611;-38
2023/12/28 07:35:54;;;;;;;8.00;4.80;;;;;;;;;;81346;272;3028319;-37
2023/12/28 07:38:33;;;;;;;9.40;4.90;;;;;;;;;;81296;272;3028005;-39
2023/12/28 07:41:17;;;;;;;8.60;5.40;;;;;;;;;;81271;273;3030769;-38
2023/12/28 07:43:57;;;;;;;7.60;4.80;;;;;;;;;;81303;273;3031418;-38
2023/12/28 07:46:33;;;;;;;8.70;5.30;;;;;;;;;;81290;273;3028674;-37
2023/12/28 07:49:19;;;;;;;8.20;5.10;;;;;;;;;;81253;273;3030723;-35
2023/12/28 07:51:57;;;;;;;8.30;4.70;;;;;;;;;;81294;273;3030960;-35
2023/12/28 07:54:42;;;;;;;8.50;5.10;;;;;;;;;;81256;273;3033347;-35
2023/12/28 07:57:25;;;;;;;8.40;5.00;;;;;;;;;;81253;273;3027991;-40
2023/12/28 08:00:09;;;;;;;7.60;5.00;;;;;;;;;;81210;281;3027394;-35
2023/12/28 08:02:53;;;;;;;8.90;4.80;;;;;;;;;;81373;273;3030507;-35
2023/12/28 08:05:32;;;;;;;7.70;4.60;;;;;;;;;;81281;281;3031817;-35
2023/12/28 08:08:14;;;;;;;8.70;4.80;;;;;;;;;;81218;274;3028464;-38
2023/12/28 08:10:49;;;;;;;8.90;4.90;;;;;;;;;;81249;274;3027438;-36
2023/12/28 08:13:25;;;;;;;8.10;4.80;;;;;;;;;;81244;281;3030950;-41
2023/12/28 08:16:01;;;;;;;8.90;5.10;;;;;;;;;;81199;274;3031814;-40
2023/12/28 08:18:50;;;;;;;8.60;5.10;;;;;;;;;;81239;281;3028696;-41
2023/12/28 08:21:35;;;;;;;8.00;5.00;;;;;;;;;;81810;274;3033125;-38
2023/12/28 08:24:13;;;;;;;8.40;4.90;;;;;;;;;;81194;269;3031354;-37
2023/12/28 08:26:59;;;;;;;9.20;5.50;;;;;;;;;;81234;269;3032021;-37
2023/12/28 08:29:45;;;;;;;8.00;5.00;;;;;;;;;;81198;273;3028267;-38
2023/12/28 08:32:31;;;;;;;7.60;4.90;;;;;;;;;;81247;273;3027233;-38
2023/12/28 08:35:17;;;;;;;7.20;4.80;;;;;;;;;;81225;281;3030574;-38
2023/12/28 08:38:02;;;;;;;7.40;4.40;;;;;;;;;;82496;275;3031869;-38
2023/12/28 08:41:00;;;;;;;8.50;4.90;;;;;;;;;;82584;270;3028276;-38
2023/12/28 08:45:06;;;;;;;7.50;5.10;;;;;;;;;;81720;302;3011806;-36
2023/12/28 08:47:47;;;;;;;7.70;4.90;;;;;;;;;;80636;284;3028803;-36
2023/12/28 08:50:31;;;;;;;8.60;5.20;;;;;;;;;;80671;288;3028256;-36
2023/12/28 08:53:14;;;;;;;9.00;5.70;;;;;;;;;;80678;284;3031146;-36
2023/12/28 08:56:16;;;;;;;8.90;5.60;;;;;;;;;;81205;270;3032242;-36
2023/12/28 08:58:57;;;;;;;8.60;5.50;;;;;;;;;;82173;275;3705688;-36
2023/12/28 09:01:37;;;;;;;8.40;5.20;;;;;;;;;;81635;271;3027162;-36
2023/12/28 09:04:23;;;;;;;8.40;5.60;;;;;;;;;;82768;275;3031647;-37
2023/12/28 09:09:09;;;;;;;8.50;5.70;;;;;;;;;;81879;303;3011973;-38
2023/12/28 09:12:01;;;;;;;8.70;5.90;;;;;;;;;;81088;274;3028323;-38
2023/12/28 09:14:44;;;;;;;9.10;6.90;;;;;;;;;;81143;274;3027926;-37
2023/12/28 09:17:26;;;;;;;9.20;6.30;;;;;;;;;;81010;282;3030416;-38
2023/12/28 09:20:17;;;;;;;8.60;6.00;;;;;;;;;;82413;274;3031057;-38
2023/12/28 09:23:16;;;;;;;8.10;5.90;;;;;;;;;;81632;308;3011463;-37
2023/12/28 09:26:11;;;;;;;8.90;6.00;;;;;;;;;;80457;286;3028310;-36
2023/12/28 09:28:49;;;;;;;9.50;6.20;;;;;;;;;;81327;285;3027666;-39
2023/12/28 09:31:28;;;;;;;9.70;6.40;;;;;;;;;;80802;285;3030956;-38
2023/12/28 09:34:14;;;;;;;8.30;6.10;;;;;;;;;;81722;281;3031963;-40
2023/12/28 09:36:57;;;;;;;9.50;6.20;;;;;;;;;;82076;279;3028609;-38
2023/12/28 09:39:47;;;;;;;9.80;5.40;;;;;;;;;;82395;279;3028136;-37
2023/12/28 09:42:38;;;;;;;8.30;5.30;;;;;;;;;;81285;279;3030534;-37
2023/12/28 09:45:20;;;;;;;7.30;5.20;;;;;;;;;;81020;272;3031210;-38
2023/12/28 09:48:02;;;;;;;7.70;5.10;;;;;;;;;;81033;276;3028955;-38
2023/12/28 09:50:54;;;;;;;8.00;5.30;;;;;;;;;;81253;276;3027390;-38
2023/12/28 09:53:35;;;;;;;8.90;4.90;;;;;;;;;;80989;283;3031563;-38
2023/12/28 09:56:19;;;;;;;8.40;5.20;;;;;;;;;;81016;276;3038192;-39
2023/12/28 09:59:13;;;;;;;8.00;5.00;;;;;;;;;;82374;283;3028462;-40
2023/12/28 10:01:57;;;;;;;8.70;5.00;;;;;;;;;;81251;276;3027994;-36
2023/12/28 10:04:40;;;;;;;8.30;4.90;;;;;;;;;;81061;276;3030958;-38
2023/12/28 10:07:27;;;;;;;8.60;5.00;;;;;;;;;;81141;275;3031440;-38
2023/12/28 10:10:11;;;;;;;8.00;5.00;;;;;;;;;;80998;276;3028516;-38
2023/12/28 10:12:51;;;;;;;8.10;4.70;;;;;;;;;;82388;276;3027266;-38
2023/12/28 10:15:36;;;;;;;7.50;4.90;;;;;;;;;;81099;272;3030492;-38
2023/12/28 10:18:20;;;;;;;8.30;5.30;;;;;;;;;;81432;271;3031425;-37
2023/12/28 10:21:13;;;;;;;7.50;4.90;;;;;;;;;;81745;283;3028626;-36
2023/12/28 10:24:02;;;;;;;8.00;5.20;;;;;;;;;;81515;271;3027474;-36
2023/12/28 10:26:39;;;;;;;7.60;4.90;;;;;;;;;;81460;270;3036641;-39
2023/12/28 10:29:23;;;;;;;7.90;5.00;;;;;;;;;;81289;270;3033324;-36
2023/12/28 10:32:04;;;;;;;7.80;4.90;;;;;;;;;;81660;270;3028417;-35
2023/12/28 10:34:43;;;;;;;7.60;4.80;;;;;;;;;;81616;271;3027784;-36
2023/12/28 10:37:31;;;;;;;7.50;4.70;;;;;;;;;;81450;271;3031953;-35
2023/12/28 10:40:19;;;;;;;8.10;5.10;;;;;;;;;;81785;271;3031413;-36
2023/12/28 10:43:03;;;;;;;7.90;5.00;;;;;;;;;;81462;267;3028428;-36
2023/12/28 10:45:46;;;;;;;7.40;4.80;;;;;;;;;;81627;271;3027103;-37
2023/12/28 10:48:32;;;;;;;7.00;4.80;;;;;;;;;;81614;271;3030608;-38
2023/12/28 10:51:27;;;;;;;7.70;4.90;;;;;;;;;;81765;288;3031667;-38
2023/12/28 10:54:30;;;;;;;7.20;4.90;;;;;;;;;;82740;271;3028341;-38
2023/12/28 10:57:29;;;;;;;6.70;4.30;;;;;;;;;;82690;271;3027204;-38
2023/12/28 11:00:30;;;;;;;7.50;4.90;;;;;;;;;;81859;279;3030785;-38
2023/12/28 11:03:19;;;;;;;6.60;4.60;;;;;;;;;;81449;271;3031785;-35
2023/12/28 11:06:04;;;;;;;8.90;5.10;;;;;;;;;;81414;279;3028474;-37
2023/12/28 11:08:53;;;;;;;6.70;4.40;;;;;;;;;;82748;271;3027065;-37
2023/12/28 11:11:36;;;;;;;7.90;4.70;;;;;;;;;;81872;278;3031609;-36
2023/12/28 11:14:25;;;;;;;11.20;5.40;;;;;;;;;;82864;267;3031821;-37
2023/12/28 11:17:04;;;;;;;11.10;5.60;;;;;;;;;;81306;271;3028026;-36
2023/12/28 11:19:52;;;;;;;15.60;5.40;;;;;;;;;;81063;275;3027385;-29
2023/12/28 11:22:48;;;;;;;9.90;4.90;;;;;;;;;;82405;278;3031825;-29
2023/12/28 11:25:43;;;;;;;9.80;4.90;;;;;;;;;;81091;280;3031978;-29
2023/12/28 11:28:30;;;;;;;9.50;4.80;;;;;;;;;;81052;275;3035233;-29
2023/12/28 11:31:21;;;;;;;9.20;4.90;;;;;;;;;;81047;275;3027932;-29
2023/12/28 11:34:03;;;;;;;9.20;4.90;;;;;;;;;;82406;283;3030430;-29
2023/12/28 11:37:05;;;;;;;8.40;4.90;;;;;;;;;;81211;272;3031000;-29
2023/12/28 11:39:51;;;;;;;9.00;4.60;;;;;;;;;;81661;274;3027931;-29
2023/12/28 11:42:31;;;;;;;7.80;4.20;;;;;;;;;;81013;274;3027805;-29
2023/12/28 11:45:16;;;;;;;7.00;4.00;;;;;;;;;;81007;275;3031219;-29
2023/12/28 11:48:09;;;;;;;8.90;4.60;;;;;;;;;;80983;275;3032494;-29
2023/12/28 11:50:50;;;;;;;7.80;4.10;;;;;;;;;;82379;282;3028493;-29
2023/12/28 11:53:31;;;;;;;7.30;4.30;;;;;;;;;;81100;275;3027169;-29
2023/12/28 11:56:20;;;;;;;7.60;4.50;;;;;;;;;;81300;291;3031120;-29
2023/12/28 11:59:10;;;;;;;8.70;4.30;;;;;;;;;;81076;274;3039238;-28
2023/12/28 12:01:59;;;;;;;9.30;4.40;;;;;;;;;;81081;270;3028577;-29
2023/12/28 12:04:48;;;;;;;8.70;4.10;;;;;;;;;;81031;271;3027419;-27
2023/12/28 12:07:37;;;;;;;7.50;4.50;;;;;;;;;;81788;275;3030912;-28
2023/12/28 12:10:22;;;;;;;8.00;4.20;;;;;;;;;;82430;291;3031140;-29
2023/12/28 12:13:09;;;;;;;6.90;4.10;;;;;;;;;;81570;275;3028373;-28
2023/12/28 12:15:59;;;;;;;7.30;4.40;;;;;;;;;;81011;271;3027827;-28
2023/12/28 12:18:43;;;;;;;7.30;4.40;;;;;;;;;;82371;282;3032296;-28
2023/12/28 12:21:25;;;;;;;10.80;5.40;;;;;;;;;;82243;271;3031266;-28
2023/12/28 12:24:10;;;;;;;11.00;5.70;;;;;;;;;;81025;275;3029330;-28
2023/12/28 12:26:52;;;;;;;11.40;6.00;;;;;;;;;;81208;279;3027987;-28
2023/12/28 12:29:30;;;;;;;10.70;5.80;;;;;;;;;;81008;275;3033549;-29
2023/12/28 12:32:12;;;;;;;11.00;5.70;;;;;;;;;;81031;282;3032312;-27
2023/12/28 12:34:51;;;;;;;9.20;5.20;;;;;;;;;;81040;274;3029367;-28
2023/12/28 12:37:28;;;;;;;10.00;5.10;;;;;;;;;;81022;279;3027731;-29
2023/12/28 12:40:08;;;;;;;9.10;4.90;;;;;;;;;;80983;275;3030536;-29
2023/12/28 12:42:45;;;;;;;10.90;5.40;;;;;;;;;;82491;278;3031872;-28
2023/12/28 12:45:23;;;;;;;9.00;4.40;;;;;;;;;;82500;270;3028167;-28
2023/12/28 12:48:01;;;;;;;8.80;4.80;;;;;;;;;;82477;278;3027141;-28
2023/12/28 12:50:39;;;;;;;9.40;4.80;;;;;;;;;;82223;274;3031010;-28
2023/12/28 12:53:15;;;;;;;9.40;5.00;;;;;;;;;;81164;270;3031246;-28
2023/12/28 12:55:56;;;;;;;16.20;8.60;;;;;;;;;;81131;274;3028668;-28
2023/12/28 12:58:33;;;;;;;10.70;6.70;;;;;;;;;;82461;278;3027149;-30
2023/12/28 13:01:15;;;;;;;12.90;7.90;;;;;;;;;;82460;274;3031556;-31
2023/12/28 13:03:52;;;;;;;17.40;8.10;;;;;;;;;;82470;274;3031123;-31
2023/12/28 13:06:28;;;;;;;16.60;8.80;;;;;;;;;;82497;290;3028763;-31
2023/12/28 13:09:06;;;;;;;16.50;8.60;;;;;;;;;;82440;274;3027880;-31
2023/12/28 13:11:43;;;;;;;13.40;7.20;;;;;;;;;;82452;274;3031137;-31
2023/12/28 13:14:20;;;;;;;14.60;7.90;;;;;;;;;;82488;282;3031831;-30
2023/12/28 13:16:59;;;;;;;14.10;6.90;;;;;;;;;;82228;274;3028650;-29
2023/12/28 13:19:42;;;;;;;11.30;6.50;;;;;;;;;;81136;278;3027769;-29
2023/12/28 13:22:20;;;;;;;10.80;6.30;;;;;;;;;;81985;280;3030946;-31
2023/12/28 13:24:57;;;;;;;13.90;7.60;;;;;;;;;;80972;276;3031160;-31
2023/12/28 13:27:33;;;;;;;11.80;6.10;;;;;;;;;;82348;275;3028445;-31
2023/12/28 13:30:13;;;;;;;10.50;5.80;;;;;;;;;;82356;282;3027924;-31
2023/12/28 13:32:50;;;;;;;12.60;6.30;;;;;;;;;;81373;275;3032072;-31
2023/12/28 13:35:30;;;;;;;10.40;5.90;;;;;;;;;;81007;283;3031110;-31
2023/12/28 13:38:07;;;;;;;11.10;5.90;;;;;;;;;;80996;275;3028653;-31
2023/12/28 13:40:44;;;;;;;9.60;5.30;;;;;;;;;;81940;271;3027801;-31
2023/12/28 13:43:23;;;;;;;10.50;5.60;;;;;;;;;;81005;282;3030907;-31
2023/12/28 13:46:03;;;;;;;9.30;4.80;;;;;;;;;;80995;275;3031122;-30
2023/12/28 13:48:39;;;;;;;9.50;5.20;;;;;;;;;;81037;275;3028270;-30
2023/12/28 13:51:16;;;;;;;9.20;4.80;;;;;;;;;;81013;275;3027588;-30
2023/12/28 13:53:52;;;;;;;10.10;5.00;;;;;;;;;;81002;282;3030833;-31
2023/12/28 13:56:28;;;;;;;10.60;4.80;;;;;;;;;;81007;282;3031399;-31
2023/12/28 13:59:03;;;;;;;8.40;4.90;;;;;;;;;;81015;275;3027828;-30
2023/12/28 14:01:39;;;;;;;9.30;4.70;;;;;;;;;;81012;275;3034087;-30
2023/12/28 14:04:57;;;;;;;9.90;4.90;;;;;;;;;;81014;275;3030932;-29
2023/12/28 14:07:34;;;;;;;8.50;4.60;;;;;;;;;;81980;271;3032333;-29
2023/12/28 14:10:11;;;;;;;7.50;4.50;;;;;;;;;;82446;271;3028674;-30
2023/12/28 14:12:46;;;;;;;8.40;4.70;;;;;;;;;;82093;275;3027708;-31
2023/12/28 14:15:22;;;;;;;8.50;4.70;;;;;;;;;;81060;275;3030714;-30
2023/12/28 14:17:58;;;;;;;8.10;4.30;;;;;;;;;;82394;282;3031711;-31
2023/12/28 14:20:34;;;;;;;9.10;4.50;;;;;;;;;;82418;275;3028042;-30
2023/12/28 14:23:12;;;;;;;8.00;4.30;;;;;;;;;;81122;275;3027690;-30
2023/12/28 14:25:53;;;;;;;8.10;4.30;;;;;;;;;;81111;275;3031142;-31
2023/12/28 14:28:31;;;;;;;7.40;4.10;;;;;;;;;;81117;275;3031353;-30
2023/12/28 14:31:10;;;;;;;7.80;4.80;;;;;;;;;;81158;275;3029183;-30
2023/12/28 14:33:47;;;;;;;8.20;4.80;;;;;;;;;;81082;275;3027829;-29
2023/12/28 14:36:32;;;;;;;7.20;4.50;;;;;;;;;;81818;281;3032116;-30
2023/12/28 14:39:09;;;;;;;8.60;4.70;;;;;;;;;;80999;275;3032175;-30
2023/12/28 14:41:45;;;;;;;8.40;4.70;;;;;;;;;;81008;275;3028381;-30
2023/12/28 14:44:20;;;;;;;7.80;4.30;;;;;;;;;;81040;275;3027141;-30
2023/12/28 14:46:56;;;;;;;6.80;4.40;;;;;;;;;;81014;275;3032429;-29
2023/12/28 14:49:32;;;;;;;7.80;4.80;;;;;;;;;;81008;282;3031945;-30
2023/12/28 14:52:11;;;;;;;7.50;4.30;;;;;;;;;;81009;275;3028015;-30
2023/12/28 14:54:47;;;;;;;7.70;4.40;;;;;;;;;;81017;275;3028110;-30
2023/12/28 14:57:24;;;;;;;8.30;4.40;;;;;;;;;;81061;275;3030917;-31
2023/12/28 15:00:00;;;;;;;6.50;4.20;;;;;;;;;;81020;275;3032072;-31
2023/12/28 15:02:36;;;;;;;8.20;4.40;;;;;;;;;;80967;275;3028048;-31
2023/12/28 15:05:13;;;;;;;9.30;4.50;;;;;;;;;;80979;275;3027249;-31
2023/12/28 15:07:49;;;;;;;7.80;4.40;;;;;;;;;;81027;271;3031871;-31
2023/12/28 15:10:26;;;;;;;9.30;4.50;;;;;;;;;;81027;275;3031364;-31
2023/12/28 15:13:04;;;;;;;9.10;4.20;;;;;;;;;;81189;271;3027818;-30
2023/12/28 15:15:42;;;;;;;8.20;4.40;;;;;;;;;;81587;275;3028089;-30
2023/12/28 15:18:20;;;;;;;8.80;4.50;;;;;;;;;;81203;271;3030852;-30
2023/12/28 15:20:58;;;;;;;9.20;4.30;;;;;;;;;;82425;282;3031815;-30
2023/12/28 15:23:37;;;;;;;7.80;4.40;;;;;;;;;;82115;275;3036015;-30
2023/12/28 15:26:13;;;;;;;7.60;4.20;;;;;;;;;;82483;281;3028864;-30
2023/12/28 15:28:51;;;;;;;7.90;4.20;;;;;;;;;;82532;278;3031708;-30
2023/12/28 15:31:27;;;;;;;7.50;4.10;;;;;;;;;;82543;270;3031380;-31
2023/12/28 15:34:04;;;;;;;7.60;4.20;;;;;;;;;;82517;274;3028395;-32
2023/12/28 15:36:42;;;;;;;7.30;4.00;;;;;;;;;;82400;282;3028454;-32
2023/12/28 15:39:18;;;;;;;7.70;4.30;;;;;;;;;;81088;282;3030943;-32
2023/12/28 15:41:55;;;;;;;8.20;4.20;;;;;;;;;;80960;275;3033648;-32
2023/12/28 15:44:32;;;;;;;7.00;4.10;;;;;;;;;;81006;275;3028550;-31
2023/12/28 15:47:15;;;;;;;7.80;4.20;;;;;;;;;;81062;275;3028182;-32
2023/12/28 15:49:54;;;;;;;7.50;4.10;;;;;;;;;;81038;275;3031723;-31
2023/12/28 15:52:33;;;;;;;7.60;4.20;;;;;;;;;;80995;275;3031733;-31
2023/12/28 15:55:14;;;;;;;6.70;3.90;;;;;;;;;;81010;275;3027948;-31
2023/12/28 15:57:54;;;;;;;7.10;4.10;;;;;;;;;;81040;275;3028117;-31
2023/12/28 16:00:34;;;;;;;7.00;3.90;;;;;;;;;;80997;275;3031187;-31
2023/12/28 16:03:10;;;;;;;8.00;4.20;;;;;;;;;;81037;274;3032009;-31
2023/12/28 16:05:47;;;;;;;6.90;4.00;;;;;;;;;;81022;275;3028520;-31
2023/12/28 16:08:24;;;;;;;6.90;4.00;;;;;;;;;;82386;278;3027909;-31
2023/12/28 16:11:01;;;;;;;7.00;3.90;;;;;;;;;;81303;275;3030738;-31
2023/12/28 16:13:42;;;;;;;6.70;4.00;;;;;;;;;;80980;282;3031162;-31
2023/12/28 16:16:22;;;;;;;6.60;3.80;;;;;;;;;;82542;271;3028637;-31